Time;durP1;ratioP1;P1;durP2;ratioP2;P2;SDS_P1;SDS_P2;PMS_P1;PMS_P2;Temp;Humidity;BMP_temperature;BMP_pressure;BME280_temperature;BME280_humidity;BME280_pressure;Samples;Min_cycle;Max_cycle;Signal;HPM_P1;HPM_P2
2023/07/30 00:01:15;;;;;;;4.63;2.45;;;;;;;18.41;66.87;99864.31;19216605;30;20208;-82
2023/07/30 00:11:18;;;;;;;2.65;2.17;;;;;;;18.30;66.74;99877.66;19235524;30;20697;-82
2023/07/30 00:21:20;;;;;;;5.78;2.28;;;;;;;18.09;66.18;99871.75;19233771;30;20250;-81
2023/07/30 00:31:23;;;;;;;5.93;1.87;;;;;;;17.58;66.20;99876.03;19218899;30;20234;-81
2023/07/30 00:41:26;;;;;;;3.22;1.80;;;;;;;17.45;65.15;99870.97;19241258;30;20203;-80
2023/07/30 00:51:29;;;;;;;4.17;2.27;;;;;;;17.28;64.56;99877.28;19257422;30;20246;-80
2023/07/30 01:01:34;;;;;;;4.75;2.20;;;;;;;17.26;62.95;99885.38;19235433;30;20268;-80
2023/07/30 01:11:37;;;;;;;5.47;2.37;;;;;;;16.80;64.42;99897.66;19225705;30;20227;-80
2023/07/30 01:21:40;;;;;;;3.80;1.63;;;;;;;17.02;62.76;99895.94;19220201;30;20206;-80
2023/07/30 01:31:43;;;;;;;7.75;1.80;;;;;;;16.99;62.66;99905.25;19230674;30;20281;-80
2023/07/30 01:41:46;;;;;;;3.00;2.07;;;;;;;16.75;64.46;99917.06;19255910;30;20610;-81
2023/07/30 01:51:49;;;;;;;7.00;2.10;;;;;;;16.65;64.93;99929.03;19229276;30;20286;-82
2023/07/30 02:01:51;;;;;;;2.83;1.77;;;;;;;16.65;64.40;99926.22;19228705;30;20565;-79
2023/07/30 02:11:54;;;;;;;5.90;2.00;;;;;;;16.53;64.49;99930.06;19227110;30;20227;-79
2023/07/30 02:21:56;;;;;;;5.43;2.10;;;;;;;17.04;62.22;99921.16;19276080;30;20210;-81
2023/07/30 02:31:59;;;;;;;4.47;2.05;;;;;;;16.64;62.37;99921.72;19212172;30;20242;-80
2023/07/30 02:42:02;;;;;;;3.90;2.00;;;;;;;16.36;63.13;99928.53;19232648;30;20649;-80
2023/07/30 02:52:05;;;;;;;4.90;1.70;;;;;;;16.74;61.99;99926.78;19640214;25;20246;-80
2023/07/30 03:02:08;;;;;;;5.13;1.83;;;;;;;16.40;63.07;99935.09;19224071;30;20510;-80
2023/07/30 03:12:11;;;;;;;3.47;1.77;;;;;;;16.03;63.97;99942.50;19224665;30;20230;-79
2023/07/30 03:22:14;;;;;;;3.47;1.77;;;;;;;16.19;63.45;99945.25;19224727;30;20216;-79
2023/07/30 03:32:16;;;;;;;8.87;2.37;;;;;;;16.54;61.67;99937.41;19210471;30;20733;-79
2023/07/30 03:42:19;;;;;;;5.25;2.40;;;;;;;16.03;64.10;99936.81;19214305;30;20699;-79
2023/07/30 03:52:22;;;;;;;6.17;1.80;;;;;;;15.87;64.78;99951.09;19221940;30;20308;-80
2023/07/30 04:02:25;;;;;;;3.83;2.00;;;;;;;15.73;63.09;99950.75;19214213;30;20558;-81
2023/07/30 04:12:28;;;;;;;4.87;2.07;;;;;;;15.67;64.59;99958.78;19229063;30;20243;-81
2023/07/30 04:22:31;;;;;;;4.72;1.90;;;;;;;15.26;65.15;99959.47;19217806;30;20242;-80
2023/07/30 04:32:34;;;;;;;4.23;2.13;;;;;;;15.54;65.13;99965.78;19218000;30;20223;-80
2023/07/30 04:42:37;;;;;;;3.77;1.83;;;;;;;15.13;66.27;99972.09;19210604;30;20242;-80
2023/07/30 04:53:05;;;;;;;4.67;2.23;;;;;;;15.48;65.10;99972.91;19214086;30;20238;-81
2023/07/30 05:03:07;;;;;;;7.63;2.22;;;;;;;15.87;63.59;99972.97;19220715;30;20269;-80
2023/07/30 05:13:12;;;;;;;9.17;2.37;;;;;;;15.62;64.86;99961.88;19220654;30;20235;-81
2023/07/30 05:23:15;;;;;;;6.93;2.53;;;;;;;16.16;63.54;99963.84;19213390;30;20210;-81
2023/07/30 05:33:18;;;;;;;4.33;1.53;;;;;;;15.96;64.24;99970.75;19228884;30;20235;-81
2023/07/30 05:43:20;;;;;;;8.40;2.37;;;;;;;16.03;63.47;99970.88;19213514;30;20290;-81
2023/07/30 05:53:23;;;;;;;8.73;2.17;;;;;;;16.06;63.62;99973.78;19192908;30;20309;-82
2023/07/30 06:03:25;;;;;;;9.13;2.70;;;;;;;17.19;61.95;99977.84;19201217;30;20238;-82
2023/07/30 06:13:28;;;;;;;9.07;2.37;;;;;;;15.96;64.29;99982.09;19203867;30;20255;-80
2023/07/30 06:23:30;;;;;;;6.80;2.63;;;;;;;15.89;65.63;99985.59;19208998;30;20211;-79
2023/07/30 06:33:33;;;;;;;10.97;2.70;;;;;;;16.62;63.57;99995.16;19220224;30;20266;-80
2023/07/30 06:43:35;;;;;;;7.10;2.50;;;;;;;16.85;62.68;100001.66;19215655;30;20274;-81
2023/07/30 06:53:38;;;;;;;5.60;1.40;;;;;;;15.97;63.68;100006.44;19201715;30;20234;-80
2023/07/30 07:03:41;;;;;;;5.70;1.60;;;;;;;15.33;65.63;100016.34;19217788;30;20265;-79
2023/07/30 07:13:43;;;;;;;6.40;1.93;;;;;;;15.90;64.47;100012.78;19201452;30;20693;-80
2023/07/30 07:23:46;;;;;;;8.47;1.87;;;;;;;15.58;65.78;100028.25;19216223;30;20235;-79
2023/07/30 07:33:49;;;;;;;8.97;2.07;;;;;;;16.47;62.63;100043.16;19201025;30;20261;-80
2023/07/30 07:43:53;;;;;;;7.78;3.03;;;;;;;15.74;65.81;100049.69;19200072;30;20336;-79
2023/07/30 07:53:56;;;;;;;7.97;2.13;;;;;;;16.20;63.64;100038.56;19211275;30;20297;-79
2023/07/30 08:03:59;;;;;;;7.73;1.83;;;;;;;16.30;62.52;100054.97;19212969;30;20202;-80
2023/07/30 08:14:01;;;;;;;10.83;2.43;;;;;;;16.94;61.17;100056.22;19226381;30;20681;-82
2023/07/30 08:24:04;;;;;;;12.10;3.23;;;;;;;16.73;61.55;100058.69;19225756;30;20610;-78
2023/07/30 08:34:07;;;;;;;11.10;2.38;;;;;;;16.40;61.60;100054.38;19208792;30;20235;-79
2023/07/30 08:44:11;;;;;;;4.35;1.92;;;;;;;16.80;61.04;100047.44;19202062;30;20614;-80
2023/07/30 08:54:15;;;;;;;5.70;2.22;;;;;;;16.26;61.87;100045.56;19222851;30;20234;-81
2023/07/30 09:04:18;;;;;;;7.20;1.80;;;;;;;16.85;60.51;100064.19;19194232;30;20207;-80
2023/07/30 09:14:22;;;;;;;6.65;2.03;;;;;;;17.57;58.01;100047.94;19208077;30;20277;-80
2023/07/30 09:24:25;;;;;;;10.27;2.45;;;;;;;18.12;57.25;100053.22;19206041;30;20238;-80
2023/07/30 09:34:30;;;;;;;9.13;2.33;;;;;;;18.32;57.36;100068.91;19201967;30;20235;-80
2023/07/30 09:44:36;;;;;;;8.63;1.90;;;;;;;17.67;57.84;100072.06;19203025;30;20324;-79
2023/07/30 09:54:39;;;;;;;8.35;2.08;;;;;;;19.17;53.86;100072.72;19189851;30;20266;-80
2023/07/30 14:02:12;;;;;;;4.63;0.93;;;;;;;18.53;43.71;100120.50;20858658;22;2451152;-81
2023/07/30 14:12:14;;;;;;;3.08;0.85;;;;;;;19.33;42.23;100113.25;20738154;28;20322;-79
2023/07/30 14:22:17;;;;;;;7.13;0.85;;;;;;;18.93;43.22;100111.19;20732329;28;20569;-79
2023/07/30 14:32:20;;;;;;;3.53;0.80;;;;;;;18.96;44.27;100121.00;20749507;28;20252;-80
2023/07/30 14:42:23;;;;;;;5.40;0.70;;;;;;;18.82;43.75;100103.75;20722861;28;20243;-80
2023/07/30 14:52:28;;;;;;;2.03;0.47;;;;;;;18.21;45.84;100130.63;20752226;28;20312;-80
2023/07/30 15:02:31;;;;;;;3.83;0.80;;;;;;;17.76;46.83;100152.31;20788623;28;20219;-80
2023/07/30 15:12:34;;;;;;;5.25;0.85;;;;;;;18.56;44.90;100136.81;20774634;28;20212;-81
2023/07/30 15:22:36;;;;;;;2.97;0.73;;;;;;;17.85;45.40;100144.31;20771964;28;20282;-80
2023/07/30 15:32:41;;;;;;;2.75;0.70;;;;;;;18.06;46.63;100128.78;20756422;28;20282;-80
2023/07/30 15:42:44;;;;;;;3.00;0.68;;;;;;;17.80;48.00;100124.72;20785603;28;20197;-81
2023/07/30 15:52:47;;;;;;;3.05;1.08;;;;;;;18.41;47.72;100122.78;20797349;28;20252;-81
2023/07/30 16:02:50;;;;;;;4.07;1.05;;;;;;;18.46;47.06;100097.59;20769906;28;20279;-79
2023/07/30 16:12:53;;;;;;;2.40;0.80;;;;;;;18.73;45.01;100100.38;20774349;28;20252;-79
2023/07/30 16:22:56;;;;;;;4.32;1.08;;;;;;;18.66;45.84;100100.31;20769773;28;20255;-79
2023/07/30 16:32:58;;;;;;;5.55;1.20;;;;;;;18.80;45.94;100094.75;20774388;28;20799;-80
2023/07/30 16:43:01;;;;;;;3.97;0.70;;;;;;;18.58;47.20;100079.41;20765720;28;20198;-79
2023/07/30 16:53:05;;;;;;;3.65;0.82;;;;;;;18.68;45.63;100086.47;20746280;28;20216;-78
2023/07/30 17:03:07;;;;;;;3.17;1.23;;;;;;;18.71;43.82;100085.69;20755334;28;20307;-80
2023/07/30 17:13:10;;;;;;;3.17;0.77;;;;;;;19.03;41.29;100086.03;20752388;28;20275;-79
2023/07/30 17:23:15;;;;;;;4.38;1.30;;;;;;;18.82;41.39;100075.25;20752284;28;20211;-80
2023/07/30 17:33:19;;;;;;;5.22;1.83;;;;;;;18.81;42.02;100079.28;20725255;28;20247;-79
2023/07/30 17:43:22;;;;;;;3.88;1.35;;;;;;;18.11;44.33;100099.97;20741507;28;20193;-78
2023/07/30 17:53:25;;;;;;;5.03;2.22;;;;;;;18.51;41.81;100083.00;20761511;28;20362;-79
2023/07/30 18:03:27;;;;;;;3.70;1.10;;;;;;;19.18;40.42;100094.31;20736650;28;20260;-79
2023/07/30 18:13:30;;;;;;;5.00;1.08;;;;;;;19.12;41.37;100095.06;20759780;28;20228;-80
2023/07/30 18:23:33;;;;;;;6.03;1.27;;;;;;;18.77;41.25;100095.53;20765054;28;20258;-79
2023/07/30 18:33:37;;;;;;;3.10;0.75;;;;;;;18.95;40.58;100120.19;20785976;28;20248;-78
2023/07/30 18:43:39;;;;;;;3.25;0.80;;;;;;;17.67;44.47;100154.59;20773363;28;20198;-79
2023/07/30 18:53:42;;;;;;;7.43;0.93;;;;;;;16.82;50.71;100184.31;20752975;28;20790;-79
2023/07/30 19:03:44;;;;;;;6.38;1.45;;;;;;;16.88;57.10;100218.94;20777580;28;20244;-80
2023/07/30 19:13:51;;;;;;;6.85;1.38;;;;;;;16.01;64.29;100240.88;20747289;28;20259;-78
2023/07/30 19:23:53;;;;;;;5.20;1.23;;;;;;;15.07;71.87;100224.59;20758310;28;20274;-80
2023/07/30 19:34:10;;;;;;;5.95;1.50;;;;;;;15.13;73.72;100221.50;20775647;28;20346;-79
2023/07/30 19:44:13;;;;;;;3.95;1.27;;;;;;;15.03;75.04;100217.22;20758072;28;20254;-80
2023/07/30 19:54:16;;;;;;;2.38;1.17;;;;;;;14.96;76.20;100209.28;20775942;28;20224;-79
2023/07/30 20:04:20;;;;;;;3.40;1.42;;;;;;;15.28;74.42;100209.38;20744707;28;20228;-80
2023/07/30 20:14:24;;;;;;;4.07;1.37;;;;;;;14.88;76.50;100204.63;20766202;28;20224;-80
2023/07/30 20:24:27;;;;;;;4.90;1.63;;;;;;;14.66;78.26;100185.38;20778431;28;20201;-79
2023/07/30 20:34:31;;;;;;;4.00;1.67;;;;;;;14.59;78.90;100185.97;20764542;28;20247;-80
2023/07/30 20:44:36;;;;;;;2.90;1.73;;;;;;;15.18;77.86;100178.75;20756574;28;20188;-80
2023/07/30 20:54:40;;;;;;;2.53;1.17;;;;;;;14.58;80.47;100172.16;20765382;28;20528;-80
2023/07/30 21:04:44;;;;;;;1.80;0.82;;;;;;;15.20;77.27;100160.16;20752844;28;20295;-80
2023/07/30 21:14:47;;;;;;;1.40;0.70;;;;;;;15.19;77.51;100135.03;20792862;28;20208;-80
2023/07/30 21:24:51;;;;;;;3.28;0.93;;;;;;;15.38;78.12;100123.78;20803979;28;20200;-81
2023/07/30 21:34:56;;;;;;;1.58;1.00;;;;;;;15.07;79.56;100104.78;20781335;28;20292;-80
2023/07/30 21:45:00;;;;;;;1.58;0.90;;;;;;;14.94;78.04;100086.97;20795311;28;20196;-80
2023/07/30 21:55:05;;;;;;;2.88;1.73;;;;;;;14.75;80.70;100067.06;20781003;28;20235;-81
2023/07/30 22:05:12;;;;;;;3.92;2.22;;;;;;;14.37;82.08;100065.63;20780866;28;20696;-79
2023/07/30 22:15:17;;;;;;;6.90;2.33;;;;;;;14.01;83.49;100045.94;20795264;28;20216;-81
2023/07/30 22:25:22;;;;;;;4.50;2.40;;;;;;;14.21;83.66;100044.94;20798602;28;20193;-79
2023/07/30 22:35:26;;;;;;;2.85;2.28;;;;;;;14.84;79.89;100027.22;20779440;28;20216;-79
2023/07/30 22:45:31;;;;;;;4.00;2.40;;;;;;;14.13;83.06;100022.44;20807711;28;20651;-79
2023/07/30 22:55:35;;;;;;;5.38;2.38;;;;;;;13.98;83.80;100018.34;20801889;28;20247;-78
2023/07/30 23:05:38;;;;;;;3.80;2.45;;;;;;;14.43;82.59;100017.22;20770140;28;20314;-79
2023/07/30 23:15:42;;;;;;;2.53;1.90;;;;;;;14.46;82.50;100010.81;20745343;28;20346;-79
2023/07/30 23:25:46;;;;;;;4.50;2.45;;;;;;;14.32;83.35;100003.59;20798721;28;20189;-79
2023/07/30 23:35:49;;;;;;;4.17;2.60;;;;;;;14.44;83.51;100014.03;20807246;28;20216;-80
2023/07/30 23:45:53;;;;;;;4.07;2.25;;;;;;;14.37;84.42;100009.00;20794722;28;20221;-81
2023/07/30 23:55:56;;;;;;;4.70;1.70;;;;;;;14.50;82.79;100000.44;20808201;28;20624;-82
